Time;durP1;ratioP1;P1;durP2;ratioP2;P2;SDS_P1;SDS_P2;PMS_P1;PMS_P2;Temp;Humidity;BMP_temperature;BMP_pressure;BME280_temperature;BME280_humidity;BME280_pressure;Samples;Min_cycle;Max_cycle;Signal;HPM_P1;HPM_P2
2023/03/01 00:02:13;;;;;;;20.13;12.23;;;0.50;99.90;;;;;;5052840;28;20029;-61
2023/03/01 00:04:38;;;;;;;19.98;12.50;;;0.50;99.90;;;;;;5039748;28;20041;-61
2023/03/01 00:07:04;;;;;;;22.73;13.38;;;0.50;99.90;;;;;;5051941;28;20111;-64
2023/03/01 00:09:30;;;;;;;20.50;13.25;;;0.50;99.90;;;;;;5044450;28;20132;-62
2023/03/01 00:11:55;;;;;;;22.27;12.95;;;0.50;99.90;;;;;;5052444;28;20033;-62
2023/03/01 00:14:21;;;;;;;22.40;12.57;;;0.50;99.90;;;;;;5016972;28;20083;-62
2023/03/01 00:16:46;;;;;;;22.02;13.05;;;0.50;99.90;;;;;;5026215;28;20033;-62
2023/03/01 00:19:14;;;;;;;20.73;13.57;;;0.50;99.90;;;;;;5052949;28;20091;-61
2023/03/01 00:21:40;;;;;;;20.90;12.50;;;0.50;99.90;;;;;;5046139;28;20087;-60
2023/03/01 00:24:07;;;;;;;19.65;13.80;;;0.50;99.90;;;;;;5022912;28;20045;-61
2023/03/01 00:26:32;;;;;;;21.27;13.48;;;0.40;99.90;;;;;;5028494;28;20076;-61
2023/03/01 00:28:58;;;;;;;21.30;13.07;;;0.40;99.90;;;;;;5044819;28;20091;-61
2023/03/01 00:31:29;;;;;;;19.30;12.25;;;0.40;99.90;;;;;;5000498;28;20037;-61
2023/03/01 00:33:57;;;;;;;21.30;13.05;;;0.40;99.90;;;;;;5038980;28;20052;-62
2023/03/01 00:36:28;;;;;;;22.50;13.80;;;0.30;99.90;;;;;;5048866;28;20037;-64
2023/03/01 00:38:55;;;;;;;22.90;14.85;;;0.30;99.90;;;;;;5040329;28;20445;-62
2023/03/01 00:41:26;;;;;;;23.88;14.60;;;0.30;99.90;;;;;;5043426;28;20033;-61
2023/03/01 00:43:52;;;;;;;26.65;14.02;;;0.30;99.90;;;;;;5052076;28;20076;-62
2023/03/01 00:46:21;;;;;;;22.65;14.50;;;0.30;99.90;;;;;;5051165;28;20037;-61
2023/03/01 00:48:47;;;;;;;23.15;15.02;;;0.30;99.90;;;;;;5021623;28;20104;-62
2023/03/01 00:51:22;;;;;;;22.77;14.30;;;0.30;99.90;;;;;;5040177;28;20559;-61
2023/03/01 00:53:51;;;;;;;22.58;14.32;;;0.30;99.90;;;;;;5035895;28;20041;-64
2023/03/01 00:56:16;;;;;;;26.77;15.23;;;0.30;99.90;;;;;;5028078;28;20124;-62
2023/03/01 00:58:42;;;;;;;27.17;14.25;;;0.30;99.90;;;;;;5027888;28;20255;-61
2023/03/01 01:01:17;;;;;;;24.50;15.20;;;0.30;99.90;;;;;;5039069;28;20391;-64
2023/03/01 01:03:55;;;;;;;27.08;14.85;;;0.30;99.90;;;;;;5046271;28;20456;-61
2023/03/01 01:06:24;;;;;;;26.83;15.60;;;0.30;99.90;;;;;;5021576;28;20039;-61
2023/03/01 01:08:51;;;;;;;25.42;14.85;;;0.30;99.90;;;;;;5040308;28;20053;-62
2023/03/01 01:11:17;;;;;;;22.92;15.18;;;0.30;99.90;;;;;;4996069;28;20048;-61
2023/03/01 01:13:44;;;;;;;25.10;14.55;;;0.20;99.90;;;;;;5026634;28;20036;-61
2023/03/01 01:16:10;;;;;;;24.50;14.55;;;0.20;99.90;;;;;;5043656;28;20499;-63
2023/03/01 01:18:36;;;;;;;22.98;14.35;;;0.20;99.90;;;;;;5045743;28;20052;-61
2023/03/01 01:21:13;;;;;;;26.02;14.82;;;0.20;99.90;;;;;;5042455;28;20049;-60
2023/03/01 01:23:40;;;;;;;26.83;14.75;;;0.20;99.90;;;;;;5036216;28;20403;-61
2023/03/01 01:26:22;;;;;;;23.25;13.88;;;0.20;99.90;;;;;;5027409;28;20041;-62
2023/03/01 01:28:48;;;;;;;23.15;14.00;;;0.10;99.90;;;;;;5039143;28;20044;-63
2023/03/01 01:31:14;;;;;;;25.85;15.32;;;0.20;99.90;;;;;;5042848;28;20037;-60
2023/03/01 01:33:40;;;;;;;23.27;14.57;;;0.10;99.90;;;;;;5039825;28;20444;-60
2023/03/01 01:36:07;;;;;;;23.77;14.82;;;0.10;99.90;;;;;;5030819;28;20084;-61
2023/03/01 01:38:34;;;;;;;24.25;14.95;;;0.00;99.90;;;;;;5047731;28;20046;-62
2023/03/01 01:41:00;;;;;;;22.70;14.77;;;0.00;99.90;;;;;;5042180;28;20033;-62
2023/03/01 01:43:29;;;;;;;24.77;14.40;;;0.00;99.90;;;;;;5042190;28;20102;-61
2023/03/01 01:46:03;;;;;;;24.42;14.77;;;0.00;99.90;;;;;;5051161;28;20053;-61
2023/03/01 01:48:40;;;;;;;24.50;15.05;;;0.00;99.90;;;;;;5041753;28;20120;-63
2023/03/01 01:51:10;;;;;;;24.08;14.80;;;0.00;99.90;;;;;;5040297;28;20041;-62
2023/03/01 01:53:37;;;;;;;25.45;15.35;;;-0.10;99.90;;;;;;5025155;28;20041;-61
2023/03/01 01:56:06;;;;;;;27.15;15.00;;;-0.10;99.90;;;;;;5050269;28;20423;-63
2023/03/01 01:58:32;;;;;;;28.90;15.05;;;-0.10;99.90;;;;;;5041737;28;20391;-61
2023/03/01 02:00:57;;;;;;;25.83;15.45;;;-0.10;99.90;;;;;;5040749;28;20037;-64
2023/03/01 02:03:28;;;;;;;26.67;15.05;;;-0.10;99.90;;;;;;5047227;28;20034;-60
2023/03/01 02:06:06;;;;;;;24.35;14.90;;;-0.10;99.90;;;;;;5025412;28;20548;-61
2023/03/01 02:08:37;;;;;;;23.92;14.73;;;-0.10;99.90;;;;;;5039747;28;20047;-63
2023/03/01 02:11:05;;;;;;;24.20;15.10;;;-0.10;99.90;;;;;;5039221;28;20041;-61
2023/03/01 02:13:34;;;;;;;26.75;16.00;;;-0.20;99.90;;;;;;5034049;28;20387;-61
2023/03/01 02:16:04;;;;;;;27.90;15.05;;;-0.20;99.90;;;;;;5038154;28;20042;-64
2023/03/01 02:18:30;;;;;;;25.83;15.07;;;-0.20;99.90;;;;;;5031035;28;20507;-66
2023/03/01 02:21:26;;;;;;;30.05;15.95;;;-0.20;99.90;;;;;;5046510;28;20041;-62
2023/03/01 02:23:55;;;;;;;26.60;15.90;;;-0.20;99.90;;;;;;5022819;28;20045;-61
2023/03/01 02:26:40;;;;;;;26.50;15.43;;;-0.20;99.90;;;;;;5020364;28;20047;-62
2023/03/01 02:29:06;;;;;;;23.85;15.30;;;-0.30;99.90;;;;;;5046591;28;20404;-61
2023/03/01 02:31:44;;;;;;;25.67;15.25;;;-0.30;99.90;;;;;;5026105;28;20041;-60
2023/03/01 02:34:21;;;;;;;26.63;15.32;;;-0.30;99.90;;;;;;5026934;28;20060;-60
2023/03/01 02:37:11;;;;;;;26.88;15.38;;;-0.30;99.90;;;;;;5037077;28;20045;-62
2023/03/01 02:39:41;;;;;;;28.52;16.08;;;-0.30;99.90;;;;;;5029266;28;20045;-61
2023/03/01 02:42:14;;;;;;;26.08;16.05;;;-0.40;99.90;;;;;;5025589;28;20480;-61
2023/03/01 02:44:39;;;;;;;;;;;-0.40;99.90;;;;;;5039580;28;20487;-60
2023/03/01 02:47:05;;;;;;;26.55;15.48;;;-0.40;99.90;;;;;;5049267;28;20008;-61
2023/03/01 02:49:34;;;;;;;27.58;16.13;;;-0.40;99.90;;;;;;5022355;28;20041;-61
2023/03/01 02:52:24;;;;;;;27.92;15.15;;;-0.40;99.90;;;;;;5041405;28;20079;-60
2023/03/01 02:55:09;;;;;;;25.80;15.02;;;-0.40;99.90;;;;;;5039028;28;20037;-62
2023/03/01 02:57:37;;;;;;;25.70;14.82;;;-0.50;99.90;;;;;;5020910;28;20143;-60
2023/03/01 03:00:18;;;;;;;25.70;15.02;;;-0.50;99.90;;;;;;5016408;28;20411;-64
2023/03/01 03:02:45;;;;;;;26.13;15.02;;;-0.60;99.90;;;;;;5036532;28;20283;-61
2023/03/01 03:05:27;;;;;;;24.25;14.07;;;-0.60;99.90;;;;;;5037726;28;20067;-60
2023/03/01 03:07:53;;;;;;;24.13;13.85;;;-0.60;99.90;;;;;;5039071;28;20048;-61
2023/03/01 03:10:28;;;;;;;21.10;13.15;;;-0.60;99.90;;;;;;5020978;28;20045;-61
2023/03/01 03:13:03;;;;;;;20.42;12.57;;;-0.60;99.90;;;;;;5045375;28;20045;-61
2023/03/01 03:15:29;;;;;;;23.55;14.10;;;-0.60;99.90;;;;;;5048338;28;20115;-61
2023/03/01 03:17:57;;;;;;;22.60;14.80;;;-0.60;99.90;;;;;;5037779;28;20040;-61
2023/03/01 03:20:26;;;;;;;26.65;14.90;;;-0.60;99.90;;;;;;5028181;28;20407;-61
2023/03/01 03:22:54;;;;;;;27.65;15.57;;;-0.70;99.90;;;;;;5035217;28;20408;-64
2023/03/01 03:25:20;;;;;;;26.67;16.13;;;-0.70;99.90;;;;;;5022282;28;20112;-60
2023/03/01 03:27:48;;;;;;;29.75;16.73;;;-0.70;99.90;;;;;;5034466;28;20085;-62
2023/03/01 03:30:19;;;;;;;31.45;17.80;;;-0.70;99.90;;;;;;5031125;28;20569;-62
2023/03/01 03:32:51;;;;;;;30.27;17.02;;;-0.80;99.90;;;;;;5043463;28;20052;-60
2023/03/01 03:35:36;;;;;;;28.40;16.67;;;-0.80;99.90;;;;;;5030136;28;20045;-61
2023/03/01 03:38:06;;;;;;;28.55;16.13;;;-0.80;99.90;;;;;;5032682;28;20418;-63
2023/03/01 03:40:40;;;;;;;28.38;16.73;;;-0.80;99.90;;;;;;5053474;28;20043;-61
2023/03/01 03:43:14;;;;;;;24.92;15.43;;;-0.90;99.90;;;;;;5019379;28;20045;-62
2023/03/01 03:45:41;;;;;;;28.60;17.55;;;-0.90;99.90;;;;;;5047861;28;20049;-64
2023/03/01 03:48:09;;;;;;;28.65;16.77;;;-0.90;99.90;;;;;;5051943;28;20120;-61
2023/03/01 03:50:36;;;;;;;28.83;17.30;;;-1.00;99.90;;;;;;5045008;28;20139;-62
2023/03/01 03:53:04;;;;;;;29.23;18.13;;;-1.00;99.90;;;;;;5047627;28;20392;-61
2023/03/01 03:55:30;;;;;;;27.80;16.48;;;-1.00;99.90;;;;;;5029578;28;20037;-61
2023/03/01 03:58:01;;;;;;;27.48;16.42;;;-1.00;99.90;;;;;;5037222;28;20384;-61
2023/03/01 04:00:27;;;;;;;25.42;16.35;;;-1.00;99.90;;;;;;5046220;28;20025;-62
2023/03/01 04:02:56;;;;;;;25.42;16.27;;;-1.00;99.90;;;;;;5048092;28;20052;-62
2023/03/01 04:05:22;;;;;;;29.10;17.38;;;-1.00;99.90;;;;;;5039914;28;20041;-62
2023/03/01 04:07:48;;;;;;;25.02;16.05;;;-1.10;99.90;;;;;;5048959;28;20388;-62
2023/03/01 04:10:16;;;;;;;27.92;16.83;;;-1.10;99.90;;;;;;5042242;28;20040;-62
2023/03/01 04:12:43;;;;;;;28.17;17.42;;;-1.10;99.90;;;;;;5039618;28;20515;-62
2023/03/01 04:15:13;;;;;;;28.58;17.25;;;-1.10;99.90;;;;;;5039300;28;20183;-61
2023/03/01 04:17:46;;;;;;;29.73;16.92;;;-1.10;99.90;;;;;;5037560;28;20073;-64
2023/03/01 04:20:26;;;;;;;34.75;19.60;;;-1.20;99.90;;;;;;5028592;28;20048;-61
2023/03/01 04:23:10;;;;;;;34.20;18.77;;;-1.20;99.90;;;;;;5039134;28;20125;-62
2023/03/01 04:25:41;;;;;;;34.85;19.73;;;-1.20;99.90;;;;;;5023034;28;20476;-64
2023/03/01 04:28:08;;;;;;;35.10;18.92;;;-1.20;99.90;;;;;;5050201;28;20036;-61
2023/03/01 04:30:35;;;;;;;33.60;18.10;;;-1.30;99.90;;;;;;5048204;28;20047;-64
2023/03/01 04:33:05;;;;;;;33.13;18.45;;;-1.30;99.90;;;;;;5050110;28;20083;-61
2023/03/01 04:35:31;;;;;;;36.47;19.98;;;-1.30;99.90;;;;;;5037416;28;20112;-61
2023/03/01 04:37:57;;;;;;;33.53;18.02;;;-1.40;99.90;;;;;;5043921;28;20534;-61
2023/03/01 04:40:23;;;;;;;34.10;17.23;;;-1.40;99.90;;;;;;5022099;28;20072;-62
2023/03/01 04:42:48;;;;;;;31.25;17.98;;;-1.40;99.90;;;;;;5023518;28;20395;-63
2023/03/01 04:45:14;;;;;;;29.88;16.75;;;-1.40;99.90;;;;;;5048502;28;20044;-62
2023/03/01 04:47:45;;;;;;;27.95;16.25;;;-1.50;99.90;;;;;;5039996;28;20041;-62
2023/03/01 04:50:14;;;;;;;28.95;16.40;;;-1.50;99.90;;;;;;5037115;28;20037;-62
2023/03/01 04:52:39;;;;;;;30.08;16.92;;;-1.60;99.90;;;;;;5050111;28;20507;-62
2023/03/01 04:55:05;;;;;;;31.15;16.88;;;-1.60;99.90;;;;;;5048106;28;20048;-62
2023/03/01 04:57:31;;;;;;;27.77;16.55;;;-1.70;99.90;;;;;;5032949;28;20025;-62
2023/03/01 04:59:57;;;;;;;28.15;16.70;;;-1.60;99.90;;;;;;5052169;28;20037;-62
2023/03/01 05:02:23;;;;;;;31.70;17.45;;;-1.70;99.90;;;;;;5045087;28;20040;-62
2023/03/01 05:04:49;;;;;;;27.42;15.77;;;-1.70;99.90;;;;;;5039195;28;20041;-62
2023/03/01 05:07:20;;;;;;;24.65;15.23;;;-1.80;99.90;;;;;;5040441;28;20037;-62
2023/03/01 05:09:46;;;;;;;25.08;13.80;;;-1.80;99.90;;;;;;5043732;28;20124;-62
2023/03/01 05:12:13;;;;;;;21.45;13.05;;;-1.80;99.90;;;;;;5048442;28;20062;-62
2023/03/01 05:14:39;;;;;;;24.80;14.27;;;-1.80;99.90;;;;;;5040624;28;20121;-62
2023/03/01 05:17:05;;;;;;;26.55;15.68;;;-1.80;99.90;;;;;;5044519;28;20124;-62
2023/03/01 05:19:32;;;;;;;26.77;14.88;;;-1.80;99.90;;;;;;5043857;28;20089;-62
2023/03/01 05:22:03;;;;;;;28.73;16.00;;;-1.80;99.90;;;;;;5045555;28;20072;-62
2023/03/01 05:24:31;;;;;;;29.88;16.48;;;-1.90;99.90;;;;;;5023223;28;20041;-62
2023/03/01 05:26:58;;;;;;;29.27;16.35;;;-1.90;99.90;;;;;;5046715;28;20044;-62
2023/03/01 05:29:25;;;;;;;28.45;16.70;;;-1.90;99.90;;;;;;5022983;28;20030;-62
2023/03/01 05:31:55;;;;;;;29.85;17.10;;;-2.00;99.90;;;;;;5051646;28;20395;-62
2023/03/01 05:34:25;;;;;;;32.70;15.85;;;-2.00;99.90;;;;;;5042401;28;20667;-62
2023/03/01 05:36:52;;;;;;;28.90;16.45;;;-2.00;99.90;;;;;;5048115;28;20038;-62
2023/03/01 05:39:21;;;;;;;28.02;15.57;;;-2.10;99.90;;;;;;5048258;28;20034;-62
2023/03/01 05:41:47;;;;;;;28.13;16.58;;;-2.10;99.90;;;;;;5040800;28;20048;-62
2023/03/01 05:44:13;;;;;;;28.02;15.85;;;-2.10;99.90;;;;;;5042585;28;20055;-62
2023/03/01 05:46:38;;;;;;;26.40;15.05;;;-2.10;99.90;;;;;;5038786;28;20033;-62
2023/03/01 05:49:05;;;;;;;24.05;14.25;;;-2.10;99.90;;;;;;5050625;28;20033;-62
2023/03/01 05:51:30;;;;;;;26.58;14.65;;;-2.10;99.90;;;;;;5042834;28;20369;-62
2023/03/01 05:53:56;;;;;;;24.33;14.15;;;-2.10;99.90;;;;;;5042258;28;20128;-62
2023/03/01 05:56:22;;;;;;;24.73;14.63;;;-2.10;99.90;;;;;;5037809;28;20084;-62
2023/03/01 05:58:50;;;;;;;25.02;14.70;;;-2.10;99.90;;;;;;5042080;28;20051;-62
2023/03/01 06:01:16;;;;;;;26.42;14.30;;;-2.10;99.90;;;;;;5032625;28;20507;-62
2023/03/01 06:03:42;;;;;;;26.38;14.82;;;-2.10;99.90;;;;;;5049233;28;20059;-62
2023/03/01 06:06:07;;;;;;;25.75;14.93;;;-2.10;99.90;;;;;;5043180;28;20037;-62
2023/03/01 06:08:33;;;;;;;28.23;15.23;;;-2.10;99.90;;;;;;5038417;28;20099;-62
2023/03/01 06:10:59;;;;;;;25.35;14.55;;;-2.10;99.90;;;;;;5024179;28;20442;-62
2023/03/01 06:13:24;;;;;;;25.75;14.10;;;-2.10;99.90;;;;;;5040623;28;20034;-62
2023/03/01 06:15:51;;;;;;;27.08;14.77;;;-2.10;99.90;;;;;;5041078;28;20094;-62
2023/03/01 06:18:17;;;;;;;24.50;14.85;;;-1.20;99.90;;;;;;5037062;28;20080;-62
2023/03/01 06:20:42;;;;;;;23.35;13.80;;;-2.10;99.90;;;;;;5048675;28;20068;-62
2023/03/01 06:23:08;;;;;;;21.58;13.50;;;-2.00;99.90;;;;;;5049874;28;20298;-62
2023/03/01 06:25:33;;;;;;;25.35;14.70;;;-2.10;99.90;;;;;;5043245;28;20052;-62
2023/03/01 06:27:59;;;;;;;23.73;14.80;;;-2.10;99.90;;;;;;5043572;28;20045;-62
2023/03/01 06:30:26;;;;;;;26.95;14.40;;;-2.00;99.90;;;;;;5036581;28;20045;-62
2023/03/01 06:32:52;;;;;;;21.92;13.20;;;-2.10;99.90;;;;;;5026986;28;20056;-62
2023/03/01 06:35:18;;;;;;;22.48;13.02;;;-2.00;99.90;;;;;;5035316;28;20041;-62
2023/03/01 06:37:46;;;;;;;22.67;13.82;;;-2.00;99.90;;;;;;5017243;28;20408;-62
2023/03/01 06:40:13;;;;;;;22.65;13.50;;;-2.00;99.90;;;;;;5032702;28;20559;-62
2023/03/01 06:42:41;;;;;;;25.20;14.32;;;-1.90;99.90;;;;;;5045047;28;20037;-62
2023/03/01 06:45:08;;;;;;;23.33;14.45;;;-2.00;99.90;;;;;;5038652;28;20407;-62
2023/03/01 06:47:34;;;;;;;24.95;14.45;;;-1.90;99.90;;;;;;5045494;28;20049;-62
2023/03/01 06:50:00;;;;;;;21.83;14.00;;;-1.90;99.90;;;;;;5048530;28;20036;-62
2023/03/01 06:52:26;;;;;;;24.50;14.63;;;-1.80;99.90;;;;;;5049666;28;20102;-62
2023/03/01 06:54:51;;;;;;;28.77;15.43;;;-1.80;99.90;;;;;;5036522;28;20045;-62
2023/03/01 06:57:17;;;;;;;26.20;15.85;;;-1.80;99.90;;;;;;5041318;28;20455;-61
2023/03/01 06:59:43;;;;;;;26.58;15.57;;;-1.70;99.90;;;;;;5019008;28;20042;-61
2023/03/01 07:02:12;;;;;;;25.48;16.08;;;-1.70;99.90;;;;;;5043046;28;20483;-61
2023/03/01 07:04:38;;;;;;;30.02;16.85;;;-1.60;99.90;;;;;;5040547;28;20032;-63
2023/03/01 07:07:04;;;;;;;27.00;16.63;;;-1.50;99.90;;;;;;5044416;28;20045;-67
2023/03/01 07:09:30;;;;;;;29.27;17.25;;;-1.60;99.90;;;;;;5028291;28;20056;-63
2023/03/01 07:11:56;;;;;;;32.38;17.65;;;-1.50;99.90;;;;;;5042338;28;20372;-63
2023/03/01 07:14:24;;;;;;;32.13;17.63;;;-1.40;99.90;;;;;;5035360;28;20037;-63
2023/03/01 07:16:50;;;;;;;29.25;17.33;;;-1.40;99.90;;;;;;5020402;28;20033;-63
2023/03/01 07:19:15;;;;;;;29.83;17.25;;;-1.40;99.90;;;;;;5039199;28;20049;-64
2023/03/01 07:21:41;;;;;;;28.83;16.90;;;-1.30;99.90;;;;;;5040406;28;20036;-63
2023/03/01 07:24:07;;;;;;;30.55;16.58;;;-1.30;99.90;;;;;;5040823;28;20373;-64
2023/03/01 07:26:33;;;;;;;26.75;16.58;;;-1.20;99.90;;;;;;5040404;28;20037;-64
2023/03/01 07:29:00;;;;;;;30.33;16.75;;;-1.30;99.90;;;;;;5039159;28;20098;-63
2023/03/01 07:31:27;;;;;;;30.23;17.48;;;-1.20;99.90;;;;;;5039667;28;20040;-64
2023/03/01 07:33:54;;;;;;;32.92;17.88;;;-1.20;99.90;;;;;;5037278;28;20037;-63
2023/03/01 07:36:20;;;;;;;34.40;19.27;;;-1.10;99.90;;;;;;5032784;28;20156;-63
2023/03/01 07:38:46;;;;;;;32.45;18.00;;;-1.10;99.90;;;;;;5036573;28;20137;-64
2023/03/01 07:41:12;;;;;;;30.75;17.92;;;-1.00;99.90;;;;;;5048310;28;20444;-63
2023/03/01 07:43:37;;;;;;;34.33;19.38;;;-1.00;99.90;;;;;;5042038;28;20041;-64
2023/03/01 07:46:04;;;;;;;32.78;18.95;;;-1.00;99.90;;;;;;5038992;28;20083;-64
2023/03/01 07:48:31;;;;;;;35.92;20.38;;;-0.90;99.90;;;;;;5039290;28;20395;-64
2023/03/01 07:51:02;;;;;;;34.65;19.25;;;-0.90;99.90;;;;;;5048833;28;20395;-64
2023/03/01 07:53:28;;;;;;;36.05;19.45;;;-0.90;99.90;;;;;;5051328;28;20055;-64
2023/03/01 07:56:08;;;;;;;31.23;19.05;;;-0.80;99.90;;;;;;5050549;28;20037;-64
2023/03/01 07:58:38;;;;;;;37.63;19.83;;;-0.40;99.90;;;;;;5045333;28;20411;-64
2023/03/01 08:01:06;;;;;;;37.15;21.38;;;-0.70;99.90;;;;;;5027574;28;20056;-63
2023/03/01 08:03:31;;;;;;;40.33;21.25;;;-0.70;99.90;;;;;;5030808;28;20625;-64
2023/03/01 08:06:00;;;;;;;40.25;21.92;;;-0.70;99.90;;;;;;5042586;28;20040;-65
2023/03/01 08:08:26;;;;;;;41.28;21.35;;;-0.60;99.90;;;;;;5041871;28;20067;-65
2023/03/01 08:10:52;;;;;;;37.83;21.42;;;-0.60;99.90;;;;;;5051124;28;20032;-65
2023/03/01 08:13:22;;;;;;;41.00;21.35;;;-0.50;99.90;;;;;;5048041;28;20038;-65
2023/03/01 08:15:50;;;;;;;38.42;21.42;;;-0.50;99.90;;;;;;5036986;28;20488;-64
2023/03/01 08:18:18;;;;;;;42.80;22.00;;;-0.50;99.90;;;;;;5040440;28;20033;-64
2023/03/01 08:20:44;;;;;;;43.40;22.63;;;-0.40;99.90;;;;;;5036013;28;20064;-64
2023/03/01 08:23:09;;;;;;;39.85;22.60;;;-0.40;99.90;;;;;;5039191;28;20435;-61
2023/03/01 08:25:35;;;;;;;39.67;21.90;;;-0.40;99.90;;;;;;5032869;28;20051;-64
2023/03/01 08:28:01;;;;;;;36.53;21.27;;;-0.30;99.90;;;;;;5044380;28;20051;-65
2023/03/01 08:30:26;;;;;;;36.15;21.50;;;-0.30;99.90;;;;;;5031224;28;20068;-63
2023/03/01 08:32:52;;;;;;;36.15;20.52;;;-0.30;99.90;;;;;;5044603;28;20415;-65
2023/03/01 08:35:18;;;;;;;36.28;20.73;;;-0.20;99.90;;;;;;5044583;28;20407;-65
2023/03/01 08:37:44;;;;;;;36.45;19.75;;;-0.20;99.90;;;;;;5042834;28;20048;-64
2023/03/01 08:40:10;;;;;;;35.25;20.75;;;-0.10;99.90;;;;;;5041854;28;20025;-65
2023/03/01 08:42:37;;;;;;;38.40;21.50;;;-0.10;99.90;;;;;;5029294;28;20425;-65
2023/03/01 08:45:06;;;;;;;33.13;20.35;;;0.00;99.90;;;;;;5032177;28;20048;-65
2023/03/01 08:47:33;;;;;;;35.45;21.48;;;0.00;99.90;;;;;;5046368;28;20441;-65
2023/03/01 08:49:59;;;;;;;34.67;21.63;;;0.10;99.90;;;;;;5035458;28;20041;-64
2023/03/01 08:52:25;;;;;;;37.47;20.95;;;0.10;99.90;;;;;;5049178;28;20033;-64
2023/03/01 08:54:51;;;;;;;38.17;21.48;;;0.20;99.90;;;;;;5026074;28;20143;-65
2023/03/01 08:57:17;;;;;;;36.42;20.73;;;0.20;99.90;;;;;;5043678;28;20049;-62
2023/03/01 08:59:43;;;;;;;35.03;20.00;;;0.30;99.90;;;;;;5048721;28;20487;-65
2023/03/01 09:02:18;;;;;;;36.28;19.95;;;0.30;99.90;;;;;;5048070;28;20436;-65
2023/03/01 09:04:44;;;;;;;36.45;21.20;;;0.40;99.90;;;;;;5046413;28;20056;-64
2023/03/01 09:07:10;;;;;;;35.15;21.38;;;0.40;99.90;;;;;;5040900;28;20407;-64
2023/03/01 09:09:37;;;;;;;35.83;20.25;;;0.50;99.90;;;;;;5047229;28;20044;-64
2023/03/01 09:12:03;;;;;;;31.45;19.92;;;0.60;99.90;;;;;;5037121;28;20052;-64
2023/03/01 09:14:29;;;;;;;32.55;19.63;;;0.70;99.90;;;;;;5017515;28;20514;-65
2023/03/01 09:16:55;;;;;;;32.63;18.45;;;0.80;99.90;;;;;;5040448;28;20037;-64
2023/03/01 09:19:20;;;;;;;30.45;17.90;;;0.80;99.90;;;;;;5040306;28;20075;-64
2023/03/01 09:21:52;;;;;;;25.70;16.88;;;1.00;99.90;;;;;;5045797;28;20690;-64
2023/03/01 09:24:22;;;;;;;27.58;15.73;;;1.00;99.90;;;;;;5046048;28;20411;-65
2023/03/01 09:26:48;;;;;;;26.23;15.32;;;1.10;99.90;;;;;;5039075;28;20036;-65
2023/03/01 09:29:14;;;;;;;25.92;15.60;;;1.10;99.90;;;;;;5045492;28;20107;-64
2023/03/01 09:31:40;;;;;;;25.48;14.95;;;1.20;99.90;;;;;;5043096;28;20515;-63
2023/03/01 09:34:06;;;;;;;23.00;13.40;;;1.30;99.90;;;;;;5044931;28;20044;-64
2023/03/01 09:36:33;;;;;;;26.67;13.35;;;1.30;99.90;;;;;;5043012;28;20480;-64
2023/03/01 09:38:59;;;;;;;21.55;12.38;;;1.40;99.90;;;;;;5039525;28;20063;-63
2023/03/01 09:41:44;;;;;;;21.00;11.02;;;1.50;99.90;;;;;;5035369;28;20040;-64
2023/03/01 09:44:32;;;;;;;20.77;10.77;;;1.60;99.90;;;;;;5026133;28;20049;-64
2023/03/01 09:46:59;;;;;;;16.10;8.90;;;1.70;99.90;;;;;;5043057;28;20071;-64
2023/03/01 09:49:40;;;;;;;14.90;7.60;;;1.80;99.90;;;;;;5027277;28;20052;-63
2023/03/01 09:52:15;;;;;;;12.32;7.50;;;1.90;99.90;;;;;;5035349;28;20384;-62
2023/03/01 09:54:40;;;;;;;12.85;6.97;;;2.00;99.90;;;;;;5038845;28;20044;-62
2023/03/01 09:57:19;;;;;;;10.30;5.85;;;2.10;99.90;;;;;;5023385;28;20402;-62
2023/03/01 10:00:00;;;;;;;12.52;5.75;;;2.20;99.90;;;;;;5038005;28;20380;-63
2023/03/01 10:02:47;;;;;;;10.73;5.10;;;2.20;99.90;;;;;;5019642;28;20081;-63
2023/03/01 10:05:27;;;;;;;9.38;5.50;;;2.30;99.90;;;;;;5017208;28;20052;-63
2023/03/01 10:08:10;;;;;;;11.40;5.93;;;2.40;99.90;;;;;;5020701;28;20136;-62
2023/03/01 10:10:39;;;;;;;12.32;5.70;;;2.50;99.90;;;;;;5024311;28;20045;-62
2023/03/01 10:13:14;;;;;;;9.95;5.07;;;2.50;99.90;;;;;;5014004;28;20045;-63
2023/03/01 10:15:47;;;;;;;9.35;5.43;;;2.60;99.90;;;;;;5019176;28;20073;-62
2023/03/01 10:18:18;;;;;;;11.73;5.75;;;2.70;99.90;;;;;;5015834;28;20060;-63
2023/03/01 10:20:58;;;;;;;10.70;5.07;;;2.80;99.90;;;;;;5038889;28;20037;-63
2023/03/01 10:23:27;;;;;;;8.63;5.30;;;2.90;99.90;;;;;;5039611;28;20108;-63
2023/03/01 10:25:53;;;;;;;10.75;5.63;;;3.00;99.90;;;;;;5032968;28;20045;-63
2023/03/01 10:28:43;;;;;;;10.88;5.65;;;3.10;99.90;;;;;;5049036;28;20407;-63
2023/03/01 10:31:22;;;;;;;10.25;5.28;;;3.20;99.90;;;;;;5039036;28;20041;-63
2023/03/01 10:33:51;;;;;;;8.13;4.88;;;3.30;99.90;;;;;;5021542;28;20037;-63
2023/03/01 10:36:17;;;;;;;9.20;5.18;;;3.40;99.90;;;;;;5026800;28;20396;-62
2023/03/01 10:38:53;;;;;;;10.73;5.47;;;3.50;99.90;;;;;;5037730;28;20037;-62
2023/03/01 10:41:23;;;;;;;10.15;5.40;;;3.70;99.90;;;;;;5032256;28;20048;-62
2023/03/01 10:43:59;;;;;;;10.40;4.90;;;3.80;99.90;;;;;;5038266;28;20041;-64
2023/03/01 10:46:34;;;;;;;8.10;4.35;;;4.00;99.90;;;;;;5040918;28;20511;-64
2023/03/01 10:49:19;;;;;;;9.10;4.32;;;4.10;99.90;;;;;;5038403;28;20151;-63
2023/03/01 10:51:47;;;;;;;7.40;4.28;;;4.50;99.90;;;;;;5044812;28;20048;-63
2023/03/01 10:54:27;;;;;;;8.85;4.32;;;4.60;99.90;;;;;;5022724;28;20083;-63
2023/03/01 10:56:56;;;;;;;7.78;4.63;;;4.80;99.90;;;;;;5038456;28;20048;-64
2023/03/01 10:59:30;;;;;;;7.75;4.63;;;5.10;99.90;;;;;;5042886;28;20036;-64
2023/03/01 11:02:16;;;;;;;9.07;4.35;;;5.30;99.90;;;;;;5050335;28;20392;-64
2023/03/01 11:05:01;;;;;;;7.45;4.32;;;5.40;99.90;;;;;;5044769;28;20095;-64
2023/03/01 11:07:27;;;;;;;9.23;4.47;;;5.60;99.90;;;;;;5042915;28;20047;-61
2023/03/01 11:09:53;;;;;;;7.82;4.57;;;5.80;99.90;;;;;;5037691;28;20045;-63
2023/03/01 11:12:20;;;;;;;7.10;4.30;;;6.00;99.90;;;;;;5031093;28;20396;-64
2023/03/01 11:14:48;;;;;;;8.45;4.97;;;6.20;99.90;;;;;;5027276;28;20561;-64
2023/03/01 11:17:25;;;;;;;8.95;4.70;;;6.40;99.90;;;;;;5046075;28;20524;-62
2023/03/01 11:20:13;;;;;;;9.05;4.30;;;6.60;99.90;;;;;;5028329;28;20068;-62
2023/03/01 11:22:56;;;;;;;9.35;4.95;;;6.80;99.90;;;;;;5031887;28;20401;-62
2023/03/01 11:25:29;;;;;;;8.52;5.20;;;7.00;99.90;;;;;;5040142;28;20503;-62
2023/03/01 11:27:57;;;;;;;8.20;4.60;;;7.10;99.90;;;;;;5023569;28;20053;-62
2023/03/01 11:30:30;;;;;;;8.05;5.20;;;7.20;99.90;;;;;;5048487;28;20121;-62
2023/03/01 11:33:13;;;;;;;8.32;4.93;;;7.30;99.90;;;;;;5034299;28;20045;-62
2023/03/01 11:35:47;;;;;;;8.52;5.38;;;7.40;99.90;;;;;;5038566;28;20056;-62
2023/03/01 11:38:24;;;;;;;9.32;5.18;;;7.40;99.90;;;;;;5039192;28;20041;-62
2023/03/01 11:41:07;;;;;;;8.88;5.43;;;7.50;99.90;;;;;;5038608;28;20108;-62
2023/03/01 11:43:45;;;;;;;9.63;5.80;;;7.50;99.90;;;;;;5044091;28;20040;-62
2023/03/01 11:46:23;;;;;;;9.38;6.10;;;7.60;99.90;;;;;;5021611;28;20049;-62
2023/03/01 11:49:26;;;;;;;9.13;6.28;;;7.60;99.90;;;;;;5049433;28;20041;-62
2023/03/01 11:52:16;;;;;;;;;;;7.70;99.90;;;;;;5034323;28;20049;-62
2023/03/01 11:55:06;;;;;;;11.60;6.78;;;7.70;99.90;;;;;;5039265;28;19920;-62
2023/03/01 11:57:59;;;;;;;9.23;6.43;;;7.80;99.90;;;;;;5047808;28;20115;-62
2023/03/01 12:00:34;;;;;;;10.07;7.03;;;7.80;99.90;;;;;;5028657;28;20041;-62
2023/03/01 12:03:21;;;;;;;11.15;6.65;;;7.90;99.90;;;;;;5043220;28;20041;-62
2023/03/01 12:06:05;;;;;;;9.68;6.40;;;8.00;99.90;;;;;;5051862;28;20549;-62
2023/03/01 12:08:37;;;;;;;11.18;6.32;;;8.00;99.90;;;;;;5051519;28;20047;-62
2023/03/01 12:11:03;;;;;;;;;;;8.00;99.90;;;;;;5049191;28;20120;-62
2023/03/01 12:14:02;;;;;;;10.80;5.63;;;8.00;99.90;;;;;;5045169;28;20059;-62
2023/03/01 12:16:54;;;;;;;9.10;5.78;;;8.20;99.90;;;;;;5041546;28;20037;-62
2023/03/01 12:19:36;;;;;;;9.70;6.00;;;8.20;99.90;;;;;;5034974;28;20377;-62
2023/03/01 12:22:28;;;;;;;12.83;6.50;;;8.20;99.90;;;;;;5027964;28;20438;-62
2023/03/01 12:25:00;;;;;;;8.80;5.75;;;8.10;99.90;;;;;;5022370;28;20412;-62
2023/03/01 12:27:47;;;;;;;9.05;5.30;;;8.20;99.90;;;;;;5018717;28;20037;-62
2023/03/01 12:30:43;;;;;;;9.20;5.78;;;8.20;99.90;;;;;;5034411;28;20147;-62
2023/03/01 12:33:14;;;;;;;9.10;5.55;;;8.20;99.90;;;;;;5023529;28;20319;-62
2023/03/01 12:36:05;;;;;;;9.93;6.30;;;8.20;99.90;;;;;;5021650;28;20072;-62
2023/03/01 12:39:09;;;;;;;9.77;6.05;;;8.20;99.90;;;;;;5035242;28;20451;-62
2023/03/01 12:41:46;;;;;;;12.27;7.10;;;8.30;99.90;;;;;;4961362;28;20082;-62
2023/03/01 12:44:37;;;;;;;10.65;6.40;;;8.30;99.90;;;;;;5034397;28;20442;-62
2023/03/01 12:47:17;;;;;;;11.02;6.38;;;8.30;99.90;;;;;;5030347;28;20049;-62
2023/03/01 12:49:59;;;;;;;9.15;6.50;;;8.30;99.90;;;;;;5041490;28;20041;-62
2023/03/01 12:52:45;;;;;;;10.50;6.50;;;8.30;99.90;;;;;;5049888;28;20032;-63
2023/03/01 12:55:32;;;;;;;12.05;6.65;;;8.30;99.90;;;;;;5021050;28;20176;-62